createdAt,value
2022-09-20T00:00:50.153Z,987.433
2022-09-20T00:02:50.383Z,987.385
2022-09-20T00:04:50.776Z,987.389
2022-09-20T00:06:49.977Z,987.339
2022-09-20T00:08:50.740Z,987.391
2022-09-20T00:10:50.571Z,987.370
2022-09-20T00:12:50.546Z,987.425
2022-09-20T00:14:50.273Z,987.434
2022-09-20T00:16:50.663Z,987.385
2022-09-20T00:18:49.794Z,987.418
2022-09-20T00:20:50.101Z,987.383
2022-09-20T00:22:49.908Z,987.353
2022-09-20T00:24:50.243Z,987.356
2022-09-20T00:26:50.463Z,987.366
2022-09-20T00:28:50.433Z,987.359
2022-09-20T00:30:50.460Z,987.363
2022-09-20T00:32:50.266Z,987.383
2022-09-20T00:34:50.451Z,987.287
2022-09-20T00:36:50.757Z,987.347
2022-09-20T00:38:49.941Z,987.392
2022-09-20T00:40:49.893Z,987.375
2022-09-20T00:42:50.735Z,987.387
2022-09-20T00:44:50.645Z,987.351
2022-09-20T00:46:50.011Z,987.356
2022-09-20T00:48:50.108Z,987.301
2022-09-20T00:50:50.119Z,987.306
2022-09-20T00:52:50.000Z,987.242
2022-09-20T00:54:50.014Z,987.224
2022-09-20T00:56:50.258Z,987.257
2022-09-20T00:58:50.087Z,987.303
2022-09-20T01:00:50.126Z,987.309
2022-09-20T01:02:50.551Z,987.291
2022-09-20T01:04:50.376Z,987.305
2022-09-20T01:06:50.544Z,987.278
2022-09-20T01:08:50.328Z,987.307
2022-09-20T01:10:50.063Z,987.311
2022-09-20T01:12:49.898Z,987.339
2022-09-20T01:14:50.689Z,987.342
2022-09-20T01:16:50.056Z,987.342
2022-09-20T01:18:49.909Z,987.312
2022-09-20T01:20:49.981Z,987.349
2022-09-20T01:22:50.179Z,987.363
2022-09-20T01:24:50.053Z,987.373
2022-09-20T01:26:50.563Z,987.348
2022-09-20T01:28:50.499Z,987.388
2022-09-20T01:30:50.489Z,987.367
2022-09-20T01:32:50.281Z,987.346
2022-09-20T01:34:50.580Z,987.346
2022-09-20T01:36:50.709Z,987.346
2022-09-20T01:38:50.605Z,987.389
2022-09-20T01:40:50.391Z,987.347
2022-09-20T01:42:50.231Z,987.370
2022-09-20T01:44:50.075Z,987.391
2022-09-20T01:46:50.390Z,987.407
2022-09-20T01:48:50.483Z,987.421
2022-09-20T01:50:50.452Z,987.411
2022-09-20T01:52:50.288Z,987.446
2022-09-20T01:54:50.228Z,987.417
2022-09-20T01:56:50.628Z,987.431
2022-09-20T01:59:23.528Z,987.460
2022-09-20T02:00:50.080Z,987.443
2022-09-20T02:02:50.472Z,987.490
2022-09-20T02:04:50.156Z,987.489
2022-09-20T02:06:49.837Z,987.453
2022-09-20T02:08:50.193Z,987.500
2022-09-20T02:10:50.312Z,987.531
2022-09-20T02:12:50.352Z,987.497
2022-09-20T02:14:50.396Z,987.450
2022-09-20T02:16:50.936Z,987.477
2022-09-20T02:18:50.085Z,987.454
2022-09-20T02:20:49.849Z,987.436
2022-09-20T02:22:50.835Z,987.475
2022-09-20T02:24:49.827Z,987.429
2022-09-20T02:26:50.066Z,987.443
2022-09-20T02:28:49.815Z,987.447
2022-09-20T02:30:50.663Z,987.468
2022-09-20T02:32:50.541Z,987.405
2022-09-20T02:34:49.916Z,987.445
2022-09-20T02:36:50.149Z,987.489
2022-09-20T02:38:49.967Z,987.453
2022-09-20T02:40:49.867Z,987.495
2022-09-20T02:42:50.777Z,987.501
2022-09-20T02:44:50.765Z,987.460
2022-09-20T02:46:49.801Z,987.477
2022-09-20T02:48:49.815Z,987.470
2022-09-20T02:50:49.939Z,987.462
2022-09-20T02:52:49.953Z,987.473
2022-09-20T02:54:49.796Z,987.401
2022-09-20T02:56:50.126Z,987.356
2022-09-20T02:58:50.012Z,987.386
2022-09-20T03:00:50.101Z,987.367
2022-09-20T03:02:50.082Z,987.420
2022-09-20T03:04:50.394Z,987.391
2022-09-20T03:06:50.608Z,987.459
2022-09-20T03:08:50.557Z,987.476
2022-09-20T03:10:50.441Z,987.446
2022-09-20T03:12:50.291Z,987.493
2022-09-20T03:14:50.158Z,987.478
2022-09-20T03:16:53.040Z,987.504
2022-09-20T03:18:50.182Z,987.509
2022-09-20T03:20:49.864Z,987.512
2022-09-20T03:22:49.885Z,987.468
2022-09-20T03:24:49.848Z,987.532
2022-09-20T03:26:49.983Z,987.506
2022-09-20T03:28:49.919Z,987.508
2022-09-20T03:30:49.877Z,987.532
2022-09-20T03:32:50.745Z,987.559
2022-09-20T03:34:49.988Z,987.557
2022-09-20T03:36:50.156Z,987.522
2022-09-20T03:38:50.017Z,987.522
2022-09-20T03:40:50.159Z,987.526
2022-09-20T03:42:50.409Z,987.500
2022-09-20T03:44:50.308Z,987.580
2022-09-20T03:46:50.576Z,987.571
2022-09-20T03:48:50.474Z,987.577
2022-09-20T03:50:50.409Z,987.599
2022-09-20T03:52:50.420Z,987.599
2022-09-20T03:54:50.413Z,987.599
2022-09-20T03:56:50.649Z,987.626
2022-09-20T03:58:50.471Z,987.664
2022-09-20T04:00:50.787Z,987.631
2022-09-20T04:02:49.847Z,987.649
2022-09-20T04:04:50.122Z,987.641
2022-09-20T04:06:50.429Z,987.666
2022-09-20T04:08:50.343Z,987.716
2022-09-20T04:10:50.426Z,987.736
2022-09-20T04:12:50.491Z,987.779
2022-09-20T04:14:50.312Z,987.800
2022-09-20T04:16:50.942Z,987.771
2022-09-20T04:18:50.148Z,987.800
2022-09-20T04:20:49.959Z,987.825
2022-09-20T04:22:50.769Z,987.817
2022-09-20T04:24:50.612Z,987.785
2022-09-20T04:26:49.813Z,987.759
2022-09-20T04:28:50.586Z,987.759
2022-09-20T04:30:50.537Z,987.827
2022-09-20T04:32:50.499Z,987.802
2022-09-20T04:34:50.682Z,987.810
2022-09-20T04:36:50.008Z,987.820
2022-09-20T04:38:50.055Z,987.789
2022-09-20T04:40:49.998Z,987.860
2022-09-20T04:42:50.024Z,987.873
2022-09-20T04:44:49.988Z,987.834
2022-09-20T04:46:56.515Z,987.854
2022-09-20T04:48:50.402Z,987.827
2022-09-20T04:50:50.368Z,987.879
2022-09-20T04:52:50.322Z,987.891
2022-09-20T04:54:50.059Z,987.892
2022-09-20T04:56:50.445Z,987.968
2022-09-20T04:58:50.263Z,987.968
2022-09-20T05:00:50.492Z,987.976
2022-09-20T05:02:50.607Z,987.979
2022-09-20T05:04:50.405Z,988.021
2022-09-20T05:06:50.160Z,988.044
2022-09-20T05:08:50.148Z,988.065
2022-09-20T05:10:50.290Z,988.075
2022-09-20T05:12:50.110Z,988.090
2022-09-20T05:14:49.951Z,988.101
2022-09-20T05:16:50.592Z,988.062
2022-09-20T05:18:50.605Z,988.110
2022-09-20T05:20:50.588Z,988.118
2022-09-20T05:22:50.469Z,988.099
2022-09-20T05:24:50.211Z,988.056
2022-09-20T05:26:50.326Z,988.102
2022-09-20T05:28:50.241Z,988.095
2022-09-20T05:30:50.152Z,988.095
2022-09-20T05:32:50.070Z,988.078
2022-09-20T05:34:50.467Z,988.078
2022-09-20T05:36:50.715Z,988.107
2022-09-20T05:38:50.553Z,988.107
2022-09-20T05:40:50.536Z,988.154
2022-09-20T05:42:50.420Z,988.154
2022-09-20T05:44:50.181Z,988.222
2022-09-20T05:46:50.517Z,988.253
2022-09-20T05:48:50.389Z,988.228
2022-09-20T05:50:50.504Z,988.332
2022-09-20T05:52:50.437Z,988.373
2022-09-20T05:54:50.382Z,988.415
2022-09-20T05:56:50.773Z,988.451
2022-09-20T05:58:50.806Z,988.420
2022-09-20T06:00:50.989Z,988.396
2022-09-20T06:02:50.080Z,988.417
2022-09-20T06:04:49.832Z,988.391
2022-09-20T06:06:50.217Z,988.386
2022-09-20T06:08:50.197Z,988.357
2022-09-20T06:10:50.376Z,988.423
2022-09-20T06:12:50.290Z,988.489
2022-09-20T06:14:50.100Z,988.415
2022-09-20T06:16:50.299Z,988.511
2022-09-20T06:18:50.389Z,988.489
2022-09-20T06:20:50.291Z,988.486
2022-09-20T06:22:50.358Z,988.424
2022-09-20T06:24:50.180Z,988.444
2022-09-20T06:26:50.410Z,988.482
2022-09-20T06:28:50.526Z,988.482
2022-09-20T06:30:51.053Z,988.452
2022-09-20T06:32:50.162Z,988.467
2022-09-20T06:34:49.888Z,988.450
2022-09-20T06:36:50.107Z,988.450
2022-09-20T06:38:50.079Z,988.384
2022-09-20T06:40:49.926Z,988.384
2022-09-20T06:42:49.861Z,988.437
2022-09-20T06:44:49.832Z,988.430
2022-09-20T06:46:50.256Z,988.483
2022-09-20T06:48:50.196Z,988.485
2022-09-20T06:50:50.098Z,988.510
2022-09-20T06:52:50.171Z,988.489
2022-09-20T06:54:50.134Z,988.491
2022-09-20T06:56:50.464Z,988.487
2022-09-20T06:58:50.341Z,988.519
2022-09-20T07:00:50.314Z,988.535
2022-09-20T07:02:50.416Z,988.620
2022-09-20T07:04:50.742Z,988.593
2022-09-20T07:06:50.188Z,988.562
2022-09-20T07:08:50.140Z,988.586
2022-09-20T07:10:50.123Z,988.556
2022-09-20T07:12:50.277Z,988.588
2022-09-20T07:14:50.200Z,988.561
2022-09-20T07:16:50.739Z,988.589
2022-09-20T07:18:49.867Z,988.573
2022-09-20T07:20:49.869Z,988.658
2022-09-20T07:22:50.100Z,988.616
2022-09-20T07:24:49.938Z,988.652
2022-09-20T07:26:50.171Z,988.652
2022-09-20T07:28:50.095Z,988.717
2022-09-20T07:30:49.966Z,988.736
2022-09-20T07:32:49.895Z,988.747
2022-09-20T07:34:50.397Z,988.788
2022-09-20T07:36:50.410Z,988.773
2022-09-20T07:38:50.386Z,988.740
2022-09-20T07:40:50.463Z,988.776
2022-09-20T07:42:56.491Z,988.788
2022-09-20T07:44:50.618Z,988.800
2022-09-20T07:46:49.971Z,988.834
2022-09-20T07:48:49.987Z,988.832
2022-09-20T07:50:50.797Z,988.902
2022-09-20T07:52:50.758Z,988.867
2022-09-20T07:54:50.614Z,988.846
2022-09-20T07:56:50.165Z,988.854
2022-09-20T07:58:52.894Z,988.869
2022-09-20T08:00:50.025Z,988.951
2022-09-20T08:02:50.447Z,988.955
2022-09-20T08:04:50.090Z,988.972
2022-09-20T08:06:50.483Z,988.978
2022-09-20T08:08:50.457Z,988.992
2022-09-20T08:10:50.591Z,988.985
2022-09-20T08:14:50.650Z,989.082
2022-09-20T08:16:50.243Z,989.046
2022-09-20T08:18:50.417Z,989.113
2022-09-20T08:20:50.432Z,989.028
2022-09-20T08:23:22.817Z,989.073
2022-09-20T08:24:50.126Z,989.079
2022-09-20T08:26:50.452Z,989.096
2022-09-20T08:28:50.510Z,989.074
2022-09-20T08:30:50.458Z,989.121
2022-09-20T08:32:50.371Z,989.138
2022-09-20T08:34:49.909Z,989.112
2022-09-20T08:36:50.313Z,989.190
2022-09-20T08:40:50.255Z,989.171
2022-09-20T08:42:50.347Z,989.163
2022-09-20T08:44:59.352Z,989.236
2022-09-20T08:46:50.747Z,989.230
2022-09-20T08:48:49.853Z,989.210
2022-09-20T08:50:49.873Z,989.278
2022-09-20T08:52:50.101Z,989.234
2022-09-20T08:54:50.034Z,989.248
2022-09-20T08:56:50.153Z,989.224
2022-09-20T08:58:49.993Z,989.244
2022-09-20T09:00:50.111Z,989.244
2022-09-20T09:02:50.081Z,989.286
2022-09-20T09:04:50.611Z,989.265
2022-09-20T09:06:49.884Z,989.303
2022-09-20T09:08:49.954Z,989.344
2022-09-20T09:10:50.122Z,989.321
2022-09-20T09:12:50.031Z,989.272
2022-09-20T09:14:49.871Z,989.301
2022-09-20T09:16:50.220Z,989.311
2022-09-20T09:18:50.393Z,989.283
2022-09-20T09:20:50.366Z,989.332
2022-09-20T09:22:50.316Z,989.237
2022-09-20T09:24:50.320Z,989.203
2022-09-20T09:26:50.362Z,989.256
2022-09-20T09:28:50.344Z,989.261
2022-09-20T09:30:50.401Z,989.237
2022-09-20T09:32:50.406Z,989.196
2022-09-20T09:34:50.739Z,989.196
2022-09-20T09:36:50.069Z,989.154
2022-09-20T09:38:50.209Z,989.154
2022-09-20T09:40:50.077Z,989.122
2022-09-20T09:42:50.041Z,989.138
2022-09-20T09:44:49.911Z,989.134
2022-09-20T09:46:50.336Z,989.130
2022-09-20T09:48:50.445Z,989.200
2022-09-20T09:50:50.405Z,989.106
2022-09-20T09:52:50.517Z,989.081
2022-09-20T09:54:50.528Z,989.119
2022-09-20T09:56:49.899Z,989.112
2022-09-20T09:58:49.994Z,989.108
2022-09-20T10:00:50.238Z,989.148
2022-09-20T10:02:50.445Z,989.110
2022-09-20T10:04:49.864Z,989.036
2022-09-20T10:06:52.781Z,989.013
2022-09-20T10:08:49.801Z,989.048
2022-09-20T10:10:50.825Z,989.023
2022-09-20T10:12:50.763Z,989.032
2022-09-20T10:14:50.711Z,989.011
2022-09-20T10:16:50.320Z,989.056
2022-09-20T10:18:50.591Z,989.079
2022-09-20T10:20:50.529Z,989.026
2022-09-20T10:23:39.741Z,989.006
2022-09-20T10:24:51.990Z,989.014
2022-09-20T10:26:50.407Z,989.033
2022-09-20T10:28:50.417Z,988.998
2022-09-20T10:30:50.457Z,988.977
2022-09-20T10:32:50.401Z,989.084
2022-09-20T10:34:49.888Z,989.074
2022-09-20T10:36:50.249Z,989.006
2022-09-20T10:38:50.261Z,989.056
2022-09-20T10:40:50.079Z,989.163
2022-09-20T10:42:50.161Z,989.061
2022-09-20T10:44:49.996Z,989.034
2022-09-20T10:46:50.418Z,989.023
2022-09-20T10:48:50.641Z,989.014
2022-09-20T10:50:50.419Z,988.981
2022-09-20T10:52:50.389Z,988.981
2022-09-20T10:54:50.473Z,988.991
2022-09-20T10:56:49.807Z,989.027
2022-09-20T10:58:50.163Z,988.969
2022-09-20T11:00:50.248Z,989.062
2022-09-20T11:02:50.343Z,989.075
2022-09-20T11:04:49.849Z,989.131
2022-09-20T11:06:50.192Z,989.081
2022-09-20T11:08:49.966Z,989.031
2022-09-20T11:10:49.813Z,989.024
2022-09-20T11:12:50.788Z,988.990
2022-09-20T11:14:50.681Z,989.024
2022-09-20T11:16:50.351Z,989.024
2022-09-20T11:18:50.480Z,989.003
2022-09-20T11:20:50.349Z,989.034
2022-09-20T11:22:50.191Z,989.031
2022-09-20T11:24:49.985Z,988.978
2022-09-20T11:26:50.290Z,989.033
2022-09-20T11:28:50.336Z,989.033
2022-09-20T11:30:50.282Z,989.029
2022-09-20T11:32:50.351Z,989.034
2022-09-20T11:34:49.848Z,989.055
2022-09-20T11:36:50.284Z,988.958
2022-09-20T11:38:53.827Z,989.065
2022-09-20T11:40:49.870Z,989.091
2022-09-20T11:42:50.625Z,989.062
2022-09-20T11:44:50.461Z,989.027
2022-09-20T11:46:50.613Z,989.026
2022-09-20T11:48:50.503Z,989.053
2022-09-20T11:50:50.766Z,989.034
2022-09-20T11:52:50.609Z,989.027
2022-09-20T11:54:50.644Z,989.008
2022-09-20T11:56:49.930Z,989.051
2022-09-20T11:58:50.043Z,989.102
2022-09-20T12:00:49.890Z,989.048
2022-09-20T12:02:50.335Z,989.060
2022-09-20T12:04:49.960Z,989.042
2022-09-20T12:06:50.274Z,988.991
2022-09-20T12:08:50.172Z,989.027
2022-09-20T12:10:50.725Z,989.019
2022-09-20T12:12:49.972Z,989.019
2022-09-20T12:14:50.052Z,989.089
2022-09-20T12:16:50.602Z,989.064
2022-09-20T12:18:50.680Z,989.118
2022-09-20T12:20:50.684Z,989.028
2022-09-20T12:22:50.452Z,988.992
2022-09-20T12:24:50.389Z,989.014
2022-09-20T12:26:50.714Z,989.014
2022-09-20T12:28:50.613Z,988.914
2022-09-20T12:30:50.798Z,988.924
2022-09-20T12:32:50.740Z,988.894
2022-09-20T12:34:50.015Z,988.909
2022-09-20T12:36:50.251Z,988.855
2022-09-20T12:38:50.158Z,988.914
2022-09-20T12:40:50.035Z,988.830
2022-09-20T12:42:50.143Z,988.929
2022-09-20T12:44:50.040Z,988.932
2022-09-20T12:46:50.340Z,988.855
2022-09-20T12:48:50.077Z,988.839
2022-09-20T12:50:49.928Z,988.856
2022-09-20T12:52:49.987Z,988.856
2022-09-20T12:54:49.877Z,988.828
2022-09-20T12:56:50.192Z,988.817
2022-09-20T12:58:50.128Z,988.788
2022-09-20T13:00:50.426Z,988.765
2022-09-20T13:02:50.614Z,988.803
2022-09-20T13:04:49.871Z,988.801
2022-09-20T13:06:50.228Z,988.797
2022-09-20T13:08:50.176Z,988.785
2022-09-20T13:10:49.994Z,988.789
2022-09-20T13:12:54.907Z,988.782
2022-09-20T13:14:49.891Z,988.811
2022-09-20T13:16:50.056Z,988.809
2022-09-20T13:18:49.992Z,988.734
2022-09-20T13:20:50.719Z,988.736
2022-09-20T13:22:50.598Z,988.752
2022-09-20T13:24:50.479Z,988.722
2022-09-20T13:26:49.825Z,988.698
2022-09-20T13:28:49.957Z,988.709
2022-09-20T13:30:50.613Z,988.702
2022-09-20T13:32:50.753Z,988.650
2022-09-20T13:34:50.203Z,988.680
2022-09-20T13:36:56.688Z,988.640
2022-09-20T13:38:50.241Z,988.642
2022-09-20T13:40:49.937Z,988.633
2022-09-20T13:42:50.200Z,988.617
2022-09-20T13:44:50.397Z,988.585
2022-09-20T13:46:50.545Z,988.588
2022-09-20T13:48:50.671Z,988.538
2022-09-20T13:50:54.162Z,988.528
2022-09-20T13:52:50.116Z,988.548
2022-09-20T13:54:50.078Z,988.531
2022-09-20T13:56:50.526Z,988.546
2022-09-20T13:58:50.314Z,988.568
2022-09-20T14:00:50.410Z,988.536
2022-09-20T14:02:50.366Z,988.500
2022-09-20T14:04:50.675Z,988.504
2022-09-20T14:06:49.916Z,988.415
2022-09-20T14:08:50.040Z,988.410
2022-09-20T14:10:49.951Z,988.466
2022-09-20T14:12:49.914Z,988.473
2022-09-20T14:14:50.062Z,988.388
2022-09-20T14:16:50.168Z,988.380
2022-09-20T14:18:50.086Z,988.406
2022-09-20T14:20:50.784Z,988.386
2022-09-20T14:22:50.794Z,988.484
2022-09-20T14:24:50.572Z,988.468
2022-09-20T14:26:50.651Z,988.498
2022-09-20T14:28:50.447Z,988.528
2022-09-20T14:30:50.215Z,988.462
2022-09-20T14:32:50.408Z,988.557
2022-09-20T14:34:49.826Z,988.525
2022-09-20T14:36:50.182Z,988.556
2022-09-20T14:38:49.923Z,988.492
2022-09-20T14:40:49.802Z,988.551
2022-09-20T14:42:49.842Z,988.561
2022-09-20T14:44:50.690Z,988.504
2022-09-20T14:46:50.007Z,988.436
2022-09-20T14:48:49.820Z,988.489
2022-09-20T14:50:50.662Z,988.509
2022-09-20T14:52:50.675Z,988.596
2022-09-20T14:54:50.533Z,988.624
2022-09-20T14:56:50.761Z,988.586
2022-09-20T14:58:50.798Z,988.626
2022-09-20T15:00:50.786Z,988.716
2022-09-20T15:02:50.011Z,988.761
2022-09-20T15:04:50.590Z,988.761
2022-09-20T15:06:50.606Z,988.717
2022-09-20T15:08:50.384Z,988.756
2022-09-20T15:10:50.416Z,988.782
2022-09-20T15:12:50.237Z,988.697
2022-09-20T15:14:50.039Z,988.749
2022-09-20T15:16:50.538Z,988.744
2022-09-20T15:18:50.316Z,988.803
2022-09-20T15:20:50.278Z,988.786
2022-09-20T15:22:50.231Z,988.808
2022-09-20T15:24:50.169Z,988.830
2022-09-20T15:26:50.410Z,988.852
2022-09-20T15:28:50.109Z,988.858
2022-09-20T15:30:49.981Z,988.781
2022-09-20T15:32:49.815Z,988.781
2022-09-20T15:34:50.358Z,988.821
2022-09-20T15:36:50.513Z,988.819
2022-09-20T15:38:50.136Z,988.808
2022-09-20T15:40:50.033Z,988.862
2022-09-20T15:42:50.001Z,988.889
2022-09-20T15:44:49.812Z,988.885
2022-09-20T15:46:50.060Z,988.933
2022-09-20T15:48:49.999Z,988.866
2022-09-20T15:50:50.706Z,988.904
2022-09-20T15:52:50.762Z,988.908
2022-09-20T15:54:50.542Z,988.955
2022-09-20T15:56:50.799Z,988.961
2022-09-20T15:58:50.725Z,988.964
2022-09-20T16:00:50.685Z,989.007
2022-09-20T16:02:50.638Z,989.058
2022-09-20T16:04:49.864Z,989.127
2022-09-20T16:06:50.094Z,989.146
2022-09-20T16:08:49.874Z,989.180
2022-09-20T16:10:50.635Z,989.256
2022-09-20T16:12:50.615Z,989.322
2022-09-20T16:14:50.410Z,989.346
2022-09-20T16:16:50.551Z,989.454
2022-09-20T16:18:50.336Z,989.477
2022-09-20T16:20:50.185Z,989.457
2022-09-20T16:22:50.123Z,989.366
2022-09-20T16:24:49.943Z,989.367
2022-09-20T16:26:50.202Z,989.431
2022-09-20T16:28:49.951Z,989.440
2022-09-20T16:30:50.685Z,989.479
2022-09-20T16:32:50.774Z,989.484
2022-09-20T16:34:50.397Z,989.518
2022-09-20T16:36:50.541Z,989.547
2022-09-20T16:38:50.310Z,989.603
2022-09-20T16:40:50.077Z,989.666
2022-09-20T16:42:54.880Z,989.669
2022-09-20T16:44:50.586Z,989.692
2022-09-20T16:46:49.943Z,989.786
2022-09-20T16:48:49.955Z,989.786
2022-09-20T16:50:50.704Z,989.900
2022-09-20T16:52:50.570Z,989.892
2022-09-20T16:54:50.320Z,989.889
2022-09-20T16:56:50.603Z,989.907
2022-09-20T16:58:50.524Z,989.905
2022-09-20T17:00:50.650Z,989.887
2022-09-20T17:02:50.546Z,989.876
2022-09-20T17:04:49.985Z,989.860
2022-09-20T17:06:50.423Z,989.880
2022-09-20T17:08:50.259Z,989.918
2022-09-20T17:10:50.224Z,989.918
2022-09-20T17:12:50.300Z,989.928
2022-09-20T17:14:50.214Z,989.889
2022-09-20T17:16:50.698Z,989.899
2022-09-20T17:18:50.420Z,989.889
2022-09-20T17:20:50.465Z,989.889
2022-09-20T17:22:50.411Z,989.885
2022-09-20T17:24:50.272Z,989.935
2022-09-20T17:26:50.868Z,989.916
2022-09-20T17:28:49.900Z,989.903
2022-09-20T17:30:50.781Z,989.947
2022-09-20T17:32:50.651Z,989.981
2022-09-20T17:34:50.092Z,990.010
2022-09-20T17:36:50.747Z,990.006
2022-09-20T17:38:49.785Z,990.042
2022-09-20T17:40:50.590Z,990.130
2022-09-20T17:42:50.639Z,990.160
2022-09-20T17:44:50.426Z,990.224
2022-09-20T17:46:51.054Z,990.193
2022-09-20T17:48:50.363Z,990.229
2022-09-20T17:50:50.290Z,990.220
2022-09-20T17:52:50.358Z,990.238
2022-09-20T17:54:50.270Z,990.252
2022-09-20T17:56:50.435Z,990.296
2022-09-20T17:58:50.231Z,990.340
2022-09-20T18:00:50.278Z,990.355
2022-09-20T18:02:50.355Z,990.361
2022-09-20T18:04:50.636Z,990.332
2022-09-20T18:06:49.806Z,990.327
2022-09-20T18:08:50.542Z,990.298
2022-09-20T18:10:50.592Z,990.336
2022-09-20T18:12:50.440Z,990.371
2022-09-20T18:14:50.165Z,990.344
2022-09-20T18:16:50.252Z,990.344
2022-09-20T18:18:50.042Z,990.428
2022-09-20T18:20:50.066Z,990.485
2022-09-20T18:22:49.865Z,990.453
2022-09-20T18:24:50.603Z,990.447
2022-09-20T18:26:50.633Z,990.529
2022-09-20T18:28:50.386Z,990.568
2022-09-20T18:30:50.282Z,990.586
2022-09-20T18:32:50.164Z,990.623
2022-09-20T18:34:50.626Z,990.645
2022-09-20T18:36:49.835Z,990.713
2022-09-20T18:38:49.791Z,990.738
2022-09-20T18:40:50.641Z,990.755
2022-09-20T18:42:50.542Z,990.775
2022-09-20T18:44:50.267Z,990.741
2022-09-20T18:46:50.326Z,990.785
2022-09-20T18:48:50.523Z,990.766
2022-09-20T18:50:50.470Z,990.798
2022-09-20T18:52:50.257Z,990.843
2022-09-20T18:54:50.139Z,990.840
2022-09-20T18:56:50.132Z,990.825
2022-09-20T18:58:50.120Z,990.834
2022-09-20T19:00:50.333Z,990.833
2022-09-20T19:02:50.560Z,990.802
2022-09-20T19:04:49.978Z,990.814
2022-09-20T19:06:50.116Z,990.853
2022-09-20T19:08:49.983Z,990.853
2022-09-20T19:10:49.797Z,990.904
2022-09-20T19:12:49.881Z,990.942
2022-09-20T19:14:50.688Z,990.928
2022-09-20T19:16:50.618Z,990.950
2022-09-20T19:18:50.484Z,990.963
2022-09-20T19:20:50.216Z,990.974
2022-09-20T19:22:50.133Z,991.023
2022-09-20T19:24:49.906Z,991.031
2022-09-20T19:26:49.934Z,991.051
2022-09-20T19:28:50.783Z,991.065
2022-09-20T19:30:50.643Z,991.058
2022-09-20T19:32:50.215Z,991.096
2022-09-20T19:34:50.528Z,991.102
2022-09-20T19:36:50.579Z,991.132
2022-09-20T19:38:50.474Z,991.173
2022-09-20T19:40:50.178Z,991.144
2022-09-20T19:42:49.989Z,991.194
2022-09-20T19:44:49.938Z,991.249
2022-09-20T19:46:50.351Z,991.261
2022-09-20T19:48:50.279Z,991.320
2022-09-20T19:50:49.981Z,991.314
2022-09-20T19:52:50.791Z,991.326
2022-09-20T19:54:50.777Z,991.349
2022-09-20T19:56:50.601Z,991.389
2022-09-20T19:58:50.477Z,991.381
2022-09-20T20:00:50.397Z,991.434
2022-09-20T20:02:50.437Z,991.426
2022-09-20T20:04:49.815Z,991.440
2022-09-20T20:06:49.919Z,991.453
2022-09-20T20:08:50.806Z,991.489
2022-09-20T20:10:50.694Z,991.508
2022-09-20T20:12:50.454Z,991.568
2022-09-20T20:14:50.428Z,991.570
2022-09-20T20:16:50.675Z,991.502
2022-09-20T20:18:50.527Z,991.543
2022-09-20T20:20:50.384Z,991.546
2022-09-20T20:22:50.251Z,991.577
2022-09-20T20:24:50.175Z,991.577
2022-09-20T20:26:50.202Z,991.593
2022-09-20T20:28:50.105Z,991.606
2022-09-20T20:30:50.300Z,991.628
2022-09-20T20:32:50.461Z,991.686
2022-09-20T20:34:49.917Z,991.677
2022-09-20T20:36:50.039Z,991.706
2022-09-20T20:38:50.235Z,991.730
2022-09-20T20:40:50.041Z,991.716
2022-09-20T20:42:49.923Z,991.708
2022-09-20T20:44:49.900Z,991.715
2022-09-20T20:46:50.216Z,991.728
2022-09-20T20:48:50.042Z,991.733
2022-09-20T20:50:50.741Z,991.741
2022-09-20T20:52:50.506Z,991.776
2022-09-20T20:54:50.189Z,991.775
2022-09-20T20:56:50.452Z,991.800
2022-09-20T20:58:50.155Z,991.857
2022-09-20T21:00:50.043Z,991.857
2022-09-20T21:02:49.912Z,991.858
2022-09-20T21:04:50.197Z,991.879
2022-09-20T21:06:50.258Z,991.864
2022-09-20T21:08:50.386Z,991.902
2022-09-20T21:10:50.227Z,991.878
2022-09-20T21:12:50.217Z,991.891
2022-09-20T21:14:50.042Z,991.907
2022-09-20T21:16:50.340Z,991.917
2022-09-20T21:18:49.956Z,991.887
2022-09-20T21:20:49.851Z,991.938
2022-09-20T21:22:50.632Z,991.962
2022-09-20T21:24:50.369Z,991.947
2022-09-20T21:26:50.395Z,991.990
2022-09-20T21:28:50.221Z,991.949
2022-09-20T21:30:50.078Z,992.016
2022-09-20T21:32:50.156Z,991.997
2022-09-20T21:34:50.435Z,991.994
2022-09-20T21:36:50.671Z,992.021
2022-09-20T21:38:50.365Z,992.053
2022-09-20T21:40:50.109Z,992.045
2022-09-20T21:42:50.068Z,992.104
2022-09-20T21:44:49.927Z,992.121
2022-09-20T21:46:49.917Z,992.114
2022-09-20T21:48:49.925Z,992.139
2022-09-20T21:50:49.812Z,992.104
2022-09-20T21:52:50.682Z,992.134
2022-09-20T21:54:50.509Z,992.130
2022-09-20T21:56:50.786Z,992.189
2022-09-20T21:58:50.679Z,992.182
2022-09-20T22:00:50.547Z,992.135
2022-09-20T22:02:50.303Z,992.157
2022-09-20T22:04:50.638Z,992.162
2022-09-20T22:06:49.924Z,992.207
2022-09-20T22:08:49.855Z,992.211
2022-09-20T22:10:50.726Z,992.209
2022-09-20T22:12:50.642Z,992.181
2022-09-20T22:14:50.577Z,992.223
2022-09-20T22:16:50.770Z,992.203
2022-09-20T22:18:50.646Z,992.242
2022-09-20T22:20:50.431Z,992.240
2022-09-20T22:22:50.304Z,992.259
2022-09-20T22:24:50.303Z,992.270
2022-09-20T22:26:50.522Z,992.264
2022-09-20T22:28:50.262Z,992.189
2022-09-20T22:30:50.280Z,992.198
2022-09-20T22:32:50.077Z,992.167
2022-09-20T22:34:50.368Z,992.193
2022-09-20T22:36:50.749Z,992.182
2022-09-20T22:38:50.627Z,992.192
2022-09-20T22:40:50.667Z,992.183
2022-09-20T22:42:50.365Z,992.156
2022-09-20T22:44:50.173Z,992.156
2022-09-20T22:46:50.347Z,992.208
2022-09-20T22:48:50.162Z,992.194
2022-09-20T22:50:50.130Z,992.247
2022-09-20T22:52:50.082Z,992.248
2022-09-20T22:54:49.992Z,992.248
2022-09-20T22:56:50.251Z,992.253
2022-09-20T22:58:50.118Z,992.237
2022-09-20T23:00:50.027Z,992.206
2022-09-20T23:02:50.672Z,992.226
2022-09-20T23:04:50.243Z,992.258
2022-09-20T23:06:50.428Z,992.262
2022-09-20T23:08:50.185Z,992.265
2022-09-20T23:10:50.166Z,992.319
2022-09-20T23:12:50.003Z,992.342
2022-09-20T23:14:49.822Z,992.357
2022-09-20T23:16:50.335Z,992.358
2022-09-20T23:18:50.296Z,992.385
2022-09-20T23:20:50.275Z,992.399
2022-09-20T23:22:49.986Z,992.411
2022-09-20T23:24:49.837Z,992.403
2022-09-20T23:26:49.972Z,992.412
2022-09-20T23:28:50.713Z,992.402
2022-09-20T23:30:50.541Z,992.356
2022-09-20T23:32:50.658Z,992.331
2022-09-20T23:34:50.091Z,992.333
2022-09-20T23:36:50.345Z,992.329
2022-09-20T23:38:50.083Z,992.351
2022-09-20T23:40:50.742Z,992.357
2022-09-20T23:42:50.593Z,992.364
2022-09-20T23:44:50.199Z,992.392
2022-09-20T23:46:50.303Z,992.442
2022-09-20T23:48:50.260Z,992.386
2022-09-20T23:50:49.963Z,992.405
2022-09-20T23:52:50.707Z,992.357
2022-09-20T23:54:50.477Z,992.361
2022-09-20T23:56:50.524Z,992.353
2022-09-20T23:58:50.399Z,992.359
